sensor_id;sensor_type;location;lat;lon;timestamp;P1;durP1;ratioP1;P2;durP2;ratioP2
25663;SDS011;13522;50.018;20.014;2022-12-20T00:02:54;159.63;;;77.25;;
25663;SDS011;13522;50.018;20.014;2022-12-20T00:06:07;160.65;;;77.13;;
25663;SDS011;13522;50.018;20.014;2022-12-20T00:09:20;155.65;;;76.08;;
25663;SDS011;13522;50.018;20.014;2022-12-20T00:12:33;155.38;;;76.35;;
25663;SDS011;13522;50.018;20.014;2022-12-20T00:15:44;159.90;;;77.00;;
25663;SDS011;13522;50.018;20.014;2022-12-20T00:18:57;163.35;;;78.28;;
25663;SDS011;13522;50.018;20.014;2022-12-20T00:22:13;163.48;;;76.85;;
25663;SDS011;13522;50.018;20.014;2022-12-20T00:25:25;153.90;;;73.38;;
25663;SDS011;13522;50.018;20.014;2022-12-20T00:28:37;156.55;;;76.10;;
25663;SDS011;13522;50.018;20.014;2022-12-20T00:31:50;157.45;;;77.53;;
25663;SDS011;13522;50.018;20.014;2022-12-20T00:35:03;163.95;;;78.03;;
25663;SDS011;13522;50.018;20.014;2022-12-20T00:38:17;161.38;;;78.80;;
25663;SDS011;13522;50.018;20.014;2022-12-20T00:41:29;155.00;;;73.68;;
25663;SDS011;13522;50.018;20.014;2022-12-20T00:44:43;163.98;;;78.50;;
25663;SDS011;13522;50.018;20.014;2022-12-20T00:47:55;159.83;;;76.88;;
25663;SDS011;13522;50.018;20.014;2022-12-20T00:51:07;162.68;;;78.43;;
25663;SDS011;13522;50.018;20.014;2022-12-20T00:54:22;158.78;;;78.43;;
25663;SDS011;13522;50.018;20.014;2022-12-20T00:57:34;168.13;;;80.10;;
25663;SDS011;13522;50.018;20.014;2022-12-20T01:00:46;156.70;;;76.03;;
25663;SDS011;13522;50.018;20.014;2022-12-20T01:04:00;158.03;;;76.93;;
25663;SDS011;13522;50.018;20.014;2022-12-20T01:07:13;164.65;;;77.23;;
25663;SDS011;13522;50.018;20.014;2022-12-20T01:10:26;158.98;;;77.50;;
25663;SDS011;13522;50.018;20.014;2022-12-20T01:13:40;163.70;;;78.43;;
25663;SDS011;13522;50.018;20.014;2022-12-20T01:16:54;167.60;;;78.68;;
25663;SDS011;13522;50.018;20.014;2022-12-20T01:20:08;163.48;;;77.53;;
25663;SDS011;13522;50.018;20.014;2022-12-20T01:23:21;159.08;;;76.58;;
25663;SDS011;13522;50.018;20.014;2022-12-20T01:26:33;156.80;;;80.30;;
25663;SDS011;13522;50.018;20.014;2022-12-20T01:29:45;167.55;;;81.85;;
25663;SDS011;13522;50.018;20.014;2022-12-20T01:32:57;170.03;;;82.93;;
25663;SDS011;13522;50.018;20.014;2022-12-20T01:36:12;167.58;;;82.10;;
25663;SDS011;13522;50.018;20.014;2022-12-20T01:39:28;171.05;;;82.48;;
25663;SDS011;13522;50.018;20.014;2022-12-20T01:42:40;163.28;;;81.23;;
25663;SDS011;13522;50.018;20.014;2022-12-20T01:45:52;178.55;;;83.83;;
25663;SDS011;13522;50.018;20.014;2022-12-20T01:49:05;178.15;;;84.65;;
25663;SDS011;13522;50.018;20.014;2022-12-20T01:52:21;181.05;;;85.83;;
25663;SDS011;13522;50.018;20.014;2022-12-20T01:55:39;172.53;;;84.65;;
25663;SDS011;13522;50.018;20.014;2022-12-20T01:58:53;166.65;;;83.80;;
25663;SDS011;13522;50.018;20.014;2022-12-20T02:02:08;165.58;;;81.75;;
25663;SDS011;13522;50.018;20.014;2022-12-20T02:05:22;176.05;;;85.88;;
25663;SDS011;13522;50.018;20.014;2022-12-20T02:08:34;169.20;;;84.05;;
25663;SDS011;13522;50.018;20.014;2022-12-20T02:11:49;176.88;;;87.63;;
25663;SDS011;13522;50.018;20.014;2022-12-20T02:18:51;164.45;;;81.58;;
25663;SDS011;13522;50.018;20.014;2022-12-20T02:22:10;165.65;;;82.95;;
25663;SDS011;13522;50.018;20.014;2022-12-20T02:25:37;170.65;;;85.00;;
25663;SDS011;13522;50.018;20.014;2022-12-20T02:29:09;167.68;;;82.25;;
25663;SDS011;13522;50.018;20.014;2022-12-20T02:32:32;155.53;;;77.83;;
25663;SDS011;13522;50.018;20.014;2022-12-20T02:38:58;162.80;;;77.10;;
25663;SDS011;13522;50.018;20.014;2022-12-20T02:42:11;163.78;;;79.65;;
25663;SDS011;13522;50.018;20.014;2022-12-20T02:45:27;125.00;;;59.58;;
25663;SDS011;13522;50.018;20.014;2022-12-20T02:48:42;155.03;;;77.13;;
25663;SDS011;13522;50.018;20.014;2022-12-20T02:51:56;155.00;;;76.95;;
25663;SDS011;13522;50.018;20.014;2022-12-20T02:55:10;156.15;;;77.95;;
25663;SDS011;13522;50.018;20.014;2022-12-20T02:58:25;154.95;;;75.68;;
25663;SDS011;13522;50.018;20.014;2022-12-20T03:01:43;160.93;;;78.33;;
25663;SDS011;13522;50.018;20.014;2022-12-20T03:04:58;169.18;;;82.15;;
25663;SDS011;13522;50.018;20.014;2022-12-20T03:08:12;166.40;;;79.90;;
25663;SDS011;13522;50.018;20.014;2022-12-20T03:11:24;157.45;;;77.15;;
25663;SDS011;13522;50.018;20.014;2022-12-20T03:14:38;161.93;;;80.95;;
25663;SDS011;13522;50.018;20.014;2022-12-20T03:17:50;154.65;;;79.30;;
25663;SDS011;13522;50.018;20.014;2022-12-20T03:21:02;167.93;;;79.98;;
25663;SDS011;13522;50.018;20.014;2022-12-20T03:24:15;156.95;;;77.65;;
25663;SDS011;13522;50.018;20.014;2022-12-20T03:27:29;178.78;;;86.70;;
25663;SDS011;13522;50.018;20.014;2022-12-20T03:30:41;174.05;;;87.03;;
25663;SDS011;13522;50.018;20.014;2022-12-20T03:33:53;169.73;;;85.43;;
25663;SDS011;13522;50.018;20.014;2022-12-20T03:37:06;160.35;;;80.53;;
25663;SDS011;13522;50.018;20.014;2022-12-20T03:40:18;161.70;;;79.10;;
25663;SDS011;13522;50.018;20.014;2022-12-20T03:43:31;160.58;;;82.63;;
25663;SDS011;13522;50.018;20.014;2022-12-20T03:46:43;171.68;;;84.75;;
25663;SDS011;13522;50.018;20.014;2022-12-20T03:49:57;173.70;;;84.00;;
25663;SDS011;13522;50.018;20.014;2022-12-20T03:53:11;172.13;;;83.93;;
25663;SDS011;13522;50.018;20.014;2022-12-20T03:56:23;174.83;;;86.90;;
25663;SDS011;13522;50.018;20.014;2022-12-20T03:59:35;166.73;;;81.63;;
25663;SDS011;13522;50.018;20.014;2022-12-20T04:02:49;170.55;;;81.30;;
25663;SDS011;13522;50.018;20.014;2022-12-20T04:06:02;161.73;;;80.50;;
25663;SDS011;13522;50.018;20.014;2022-12-20T04:09:15;159.15;;;80.22;;
25663;SDS011;13522;50.018;20.014;2022-12-20T04:12:28;172.48;;;81.93;;
25663;SDS011;13522;50.018;20.014;2022-12-20T04:15:42;161.58;;;79.85;;
25663;SDS011;13522;50.018;20.014;2022-12-20T04:18:56;158.60;;;78.15;;
25663;SDS011;13522;50.018;20.014;2022-12-20T04:22:13;168.58;;;82.33;;
25663;SDS011;13522;50.018;20.014;2022-12-20T04:25:27;166.70;;;78.78;;
25663;SDS011;13522;50.018;20.014;2022-12-20T04:28:39;160.43;;;78.93;;
25663;SDS011;13522;50.018;20.014;2022-12-20T04:31:51;161.20;;;80.40;;
25663;SDS011;13522;50.018;20.014;2022-12-20T04:35:05;154.63;;;77.73;;
25663;SDS011;13522;50.018;20.014;2022-12-20T04:38:18;164.10;;;80.08;;
25663;SDS011;13522;50.018;20.014;2022-12-20T04:41:32;154.30;;;77.83;;
25663;SDS011;13522;50.018;20.014;2022-12-20T04:44:46;161.40;;;81.58;;
25663;SDS011;13522;50.018;20.014;2022-12-20T04:48:00;160.83;;;80.53;;
25663;SDS011;13522;50.018;20.014;2022-12-20T04:51:15;156.18;;;78.98;;
25663;SDS011;13522;50.018;20.014;2022-12-20T04:54:27;160.98;;;79.78;;
25663;SDS011;13522;50.018;20.014;2022-12-20T04:57:41;160.83;;;81.13;;
25663;SDS011;13522;50.018;20.014;2022-12-20T05:00:53;160.90;;;80.13;;
25663;SDS011;13522;50.018;20.014;2022-12-20T05:04:08;154.73;;;78.70;;
25663;SDS011;13522;50.018;20.014;2022-12-20T05:07:20;151.75;;;75.53;;
25663;SDS011;13522;50.018;20.014;2022-12-20T05:10:32;138.23;;;71.03;;
25663;SDS011;13522;50.018;20.014;2022-12-20T05:13:44;141.15;;;72.70;;
25663;SDS011;13522;50.018;20.014;2022-12-20T05:16:57;154.33;;;74.83;;
25663;SDS011;13522;50.018;20.014;2022-12-20T05:20:10;138.00;;;66.88;;
25663;SDS011;13522;50.018;20.014;2022-12-20T05:23:23;126.78;;;62.95;;
25663;SDS011;13522;50.018;20.014;2022-12-20T05:26:50;115.50;;;58.65;;
25663;SDS011;13522;50.018;20.014;2022-12-20T05:30:04;114.18;;;59.75;;
25663;SDS011;13522;50.018;20.014;2022-12-20T05:33:19;122.23;;;62.73;;
25663;SDS011;13522;50.018;20.014;2022-12-20T05:36:33;127.88;;;62.18;;
25663;SDS011;13522;50.018;20.014;2022-12-20T05:39:46;122.58;;;60.35;;
25663;SDS011;13522;50.018;20.014;2022-12-20T05:42:59;130.53;;;64.68;;
25663;SDS011;13522;50.018;20.014;2022-12-20T05:46:13;127.95;;;65.08;;
25663;SDS011;13522;50.018;20.014;2022-12-20T05:49:30;129.68;;;64.58;;
25663;SDS011;13522;50.018;20.014;2022-12-20T05:52:43;149.55;;;70.70;;
25663;SDS011;13522;50.018;20.014;2022-12-20T05:55:56;142.00;;;70.35;;
25663;SDS011;13522;50.018;20.014;2022-12-20T05:59:10;132.70;;;68.28;;
25663;SDS011;13522;50.018;20.014;2022-12-20T06:02:22;138.45;;;67.88;;
25663;SDS011;13522;50.018;20.014;2022-12-20T06:05:37;139.88;;;70.30;;
25663;SDS011;13522;50.018;20.014;2022-12-20T06:08:52;147.65;;;72.45;;
25663;SDS011;13522;50.018;20.014;2022-12-20T06:12:09;143.75;;;70.15;;
25663;SDS011;13522;50.018;20.014;2022-12-20T06:15:22;142.58;;;71.38;;
25663;SDS011;13522;50.018;20.014;2022-12-20T06:18:36;146.38;;;73.30;;
25663;SDS011;13522;50.018;20.014;2022-12-20T06:21:49;146.15;;;74.80;;
25663;SDS011;13522;50.018;20.014;2022-12-20T06:25:06;139.20;;;70.00;;
25663;SDS011;13522;50.018;20.014;2022-12-20T06:28:19;135.73;;;69.78;;
25663;SDS011;13522;50.018;20.014;2022-12-20T06:31:32;140.30;;;69.98;;
25663;SDS011;13522;50.018;20.014;2022-12-20T06:34:44;132.15;;;67.78;;
25663;SDS011;13522;50.018;20.014;2022-12-20T06:37:58;131.68;;;67.58;;
25663;SDS011;13522;50.018;20.014;2022-12-20T06:41:11;118.10;;;59.65;;
25663;SDS011;13522;50.018;20.014;2022-12-20T06:44:24;114.88;;;56.58;;
25663;SDS011;13522;50.018;20.014;2022-12-20T06:47:35;112.85;;;55.95;;
25663;SDS011;13522;50.018;20.014;2022-12-20T06:50:48;93.95;;;48.53;;
25663;SDS011;13522;50.018;20.014;2022-12-20T06:54:02;89.98;;;48.18;;
25663;SDS011;13522;50.018;20.014;2022-12-20T06:57:14;94.63;;;47.05;;
25663;SDS011;13522;50.018;20.014;2022-12-20T07:00:27;101.35;;;49.98;;
25663;SDS011;13522;50.018;20.014;2022-12-20T07:03:39;98.68;;;49.88;;
25663;SDS011;13522;50.018;20.014;2022-12-20T07:06:52;95.33;;;48.90;;
25663;SDS011;13522;50.018;20.014;2022-12-20T07:10:05;101.33;;;49.90;;
25663;SDS011;13522;50.018;20.014;2022-12-20T07:13:18;99.23;;;50.65;;
25663;SDS011;13522;50.018;20.014;2022-12-20T07:16:30;97.08;;;49.53;;
25663;SDS011;13522;50.018;20.014;2022-12-20T07:19:44;98.48;;;48.75;;
25663;SDS011;13522;50.018;20.014;2022-12-20T07:22:56;98.38;;;50.35;;
25663;SDS011;13522;50.018;20.014;2022-12-20T07:26:09;121.63;;;62.18;;
25663;SDS011;13522;50.018;20.014;2022-12-20T07:29:21;137.85;;;71.50;;
25663;SDS011;13522;50.018;20.014;2022-12-20T07:32:33;155.83;;;77.78;;
25663;SDS011;13522;50.018;20.014;2022-12-20T07:35:45;159.25;;;80.55;;
25663;SDS011;13522;50.018;20.014;2022-12-20T07:38:58;156.15;;;80.60;;
25663;SDS011;13522;50.018;20.014;2022-12-20T07:42:10;163.55;;;83.25;;
25663;SDS011;13522;50.018;20.014;2022-12-20T07:45:24;165.23;;;85.60;;
25663;SDS011;13522;50.018;20.014;2022-12-20T07:48:37;176.30;;;84.65;;
25663;SDS011;13522;50.018;20.014;2022-12-20T07:51:49;168.75;;;84.67;;
25663;SDS011;13522;50.018;20.014;2022-12-20T07:55:06;171.35;;;88.20;;
25663;SDS011;13522;50.018;20.014;2022-12-20T07:58:20;171.43;;;86.38;;
25663;SDS011;13522;50.018;20.014;2022-12-20T08:01:33;172.05;;;87.30;;
25663;SDS011;13522;50.018;20.014;2022-12-20T08:04:45;161.30;;;83.08;;
25663;SDS011;13522;50.018;20.014;2022-12-20T08:07:58;148.95;;;77.08;;
25663;SDS011;13522;50.018;20.014;2022-12-20T08:11:11;172.05;;;83.97;;
25663;SDS011;13522;50.018;20.014;2022-12-20T08:14:24;153.93;;;78.43;;
25663;SDS011;13522;50.018;20.014;2022-12-20T08:17:36;114.78;;;60.15;;
25663;SDS011;13522;50.018;20.014;2022-12-20T08:20:48;114.63;;;59.13;;
25663;SDS011;13522;50.018;20.014;2022-12-20T08:24:00;104.25;;;55.53;;
25663;SDS011;13522;50.018;20.014;2022-12-20T08:27:13;111.80;;;57.45;;
25663;SDS011;13522;50.018;20.014;2022-12-20T08:30:25;116.48;;;56.80;;
25663;SDS011;13522;50.018;20.014;2022-12-20T08:33:37;118.70;;;61.00;;
25663;SDS011;13522;50.018;20.014;2022-12-20T08:36:49;113.88;;;57.25;;
25663;SDS011;13522;50.018;20.014;2022-12-20T08:40:03;121.03;;;60.23;;
25663;SDS011;13522;50.018;20.014;2022-12-20T08:43:18;110.58;;;57.68;;
25663;SDS011;13522;50.018;20.014;2022-12-20T08:46:30;106.70;;;55.78;;
25663;SDS011;13522;50.018;20.014;2022-12-20T08:49:43;107.10;;;54.30;;
25663;SDS011;13522;50.018;20.014;2022-12-20T08:52:55;104.20;;;54.93;;
25663;SDS011;13522;50.018;20.014;2022-12-20T08:56:08;105.83;;;56.05;;
25663;SDS011;13522;50.018;20.014;2022-12-20T08:59:22;102.58;;;54.55;;
25663;SDS011;13522;50.018;20.014;2022-12-20T09:02:35;102.48;;;53.60;;
25663;SDS011;13522;50.018;20.014;2022-12-20T09:05:47;93.70;;;51.80;;
25663;SDS011;13522;50.018;20.014;2022-12-20T09:09:00;107.30;;;54.18;;
25663;SDS011;13522;50.018;20.014;2022-12-20T09:12:12;93.80;;;50.70;;
25663;SDS011;13522;50.018;20.014;2022-12-20T09:15:24;94.35;;;50.93;;
25663;SDS011;13522;50.018;20.014;2022-12-20T09:18:37;93.78;;;50.60;;
25663;SDS011;13522;50.018;20.014;2022-12-20T09:21:49;95.60;;;51.13;;
25663;SDS011;13522;50.018;20.014;2022-12-20T09:25:02;101.15;;;52.05;;
25663;SDS011;13522;50.018;20.014;2022-12-20T09:28:17;96.18;;;53.08;;
25663;SDS011;13522;50.018;20.014;2022-12-20T09:31:29;99.38;;;53.53;;
25663;SDS011;13522;50.018;20.014;2022-12-20T09:34:42;96.00;;;52.65;;
25663;SDS011;13522;50.018;20.014;2022-12-20T09:37:54;92.28;;;51.93;;
25663;SDS011;13522;50.018;20.014;2022-12-20T09:41:07;89.58;;;49.93;;
25663;SDS011;13522;50.018;20.014;2022-12-20T09:44:33;94.83;;;50.63;;
25663;SDS011;13522;50.018;20.014;2022-12-20T09:47:49;90.80;;;50.90;;
25663;SDS011;13522;50.018;20.014;2022-12-20T09:51:05;86.23;;;46.73;;
25663;SDS011;13522;50.018;20.014;2022-12-20T09:54:24;88.83;;;47.90;;
25663;SDS011;13522;50.018;20.014;2022-12-20T09:57:45;85.80;;;46.00;;
25663;SDS011;13522;50.018;20.014;2022-12-20T10:01:13;92.10;;;50.00;;
25663;SDS011;13522;50.018;20.014;2022-12-20T10:04:29;95.55;;;51.40;;
25663;SDS011;13522;50.018;20.014;2022-12-20T10:07:44;96.45;;;50.75;;
25663;SDS011;13522;50.018;20.014;2022-12-20T10:11:03;99.75;;;52.28;;
25663;SDS011;13522;50.018;20.014;2022-12-20T10:18:02;88.97;;;48.23;;
25663;SDS011;13522;50.018;20.014;2022-12-20T10:21:31;95.35;;;47.48;;
25663;SDS011;13522;50.018;20.014;2022-12-20T10:24:50;91.70;;;50.15;;
25663;SDS011;13522;50.018;20.014;2022-12-20T10:28:10;91.98;;;49.78;;
25663;SDS011;13522;50.018;20.014;2022-12-20T10:31:25;91.65;;;51.40;;
25663;SDS011;13522;50.018;20.014;2022-12-20T10:34:38;95.40;;;52.28;;
25663;SDS011;13522;50.018;20.014;2022-12-20T10:38:02;95.88;;;52.35;;
25663;SDS011;13522;50.018;20.014;2022-12-20T10:41:18;87.75;;;49.23;;
25663;SDS011;13522;50.018;20.014;2022-12-20T10:44:33;92.70;;;50.63;;
25663;SDS011;13522;50.018;20.014;2022-12-20T10:47:47;90.55;;;48.78;;
25663;SDS011;13522;50.018;20.014;2022-12-20T10:51:03;86.53;;;46.73;;
25663;SDS011;13522;50.018;20.014;2022-12-20T10:54:27;87.23;;;46.60;;
25663;SDS011;13522;50.018;20.014;2022-12-20T10:57:44;84.65;;;46.03;;
25663;SDS011;13522;50.018;20.014;2022-12-20T11:01:03;87.00;;;46.68;;
25663;SDS011;13522;50.018;20.014;2022-12-20T11:04:23;72.50;;;41.45;;
25663;SDS011;13522;50.018;20.014;2022-12-20T11:07:50;74.73;;;40.98;;
25663;SDS011;13522;50.018;20.014;2022-12-20T11:11:13;78.88;;;40.73;;
25663;SDS011;13522;50.018;20.014;2022-12-20T11:14:28;79.35;;;41.95;;
25663;SDS011;13522;50.018;20.014;2022-12-20T11:17:44;76.10;;;41.13;;
25663;SDS011;13522;50.018;20.014;2022-12-20T11:21:02;79.55;;;41.00;;
25663;SDS011;13522;50.018;20.014;2022-12-20T11:24:26;76.70;;;41.18;;
25663;SDS011;13522;50.018;20.014;2022-12-20T11:27:43;76.40;;;40.98;;
25663;SDS011;13522;50.018;20.014;2022-12-20T11:31:04;74.63;;;39.78;;
25663;SDS011;13522;50.018;20.014;2022-12-20T11:34:24;73.50;;;39.00;;
25663;SDS011;13522;50.018;20.014;2022-12-20T11:37:45;67.48;;;38.60;;
25663;SDS011;13522;50.018;20.014;2022-12-20T11:41:12;73.33;;;38.53;;
25663;SDS011;13522;50.018;20.014;2022-12-20T11:44:35;72.85;;;38.38;;
25663;SDS011;13522;50.018;20.014;2022-12-20T11:48:05;74.85;;;39.70;;
25663;SDS011;13522;50.018;20.014;2022-12-20T11:51:57;76.25;;;41.20;;
25663;SDS011;13522;50.018;20.014;2022-12-20T11:55:17;77.00;;;39.55;;
25663;SDS011;13522;50.018;20.014;2022-12-20T12:01:50;73.38;;;38.43;;
25663;SDS011;13522;50.018;20.014;2022-12-20T12:05:13;79.25;;;39.83;;
25663;SDS011;13522;50.018;20.014;2022-12-20T12:08:33;89.53;;;41.23;;
25663;SDS011;13522;50.018;20.014;2022-12-20T12:11:54;76.38;;;39.88;;
25663;SDS011;13522;50.018;20.014;2022-12-20T12:15:16;89.95;;;42.33;;
25663;SDS011;13522;50.018;20.014;2022-12-20T12:18:35;85.40;;;41.35;;
25663;SDS011;13522;50.018;20.014;2022-12-20T12:21:49;88.08;;;38.60;;
25663;SDS011;13522;50.018;20.014;2022-12-20T12:25:10;85.80;;;38.23;;
25663;SDS011;13522;50.018;20.014;2022-12-20T12:28:25;84.20;;;40.05;;
25663;SDS011;13522;50.018;20.014;2022-12-20T12:31:38;84.67;;;39.93;;
25663;SDS011;13522;50.018;20.014;2022-12-20T12:35:00;97.50;;;42.80;;
25663;SDS011;13522;50.018;20.014;2022-12-20T12:38:34;97.85;;;40.43;;
25663;SDS011;13522;50.018;20.014;2022-12-20T12:42:33;88.55;;;38.68;;
25663;SDS011;13522;50.018;20.014;2022-12-20T12:46:13;80.70;;;39.78;;
25663;SDS011;13522;50.018;20.014;2022-12-20T12:49:30;80.88;;;40.13;;
25663;SDS011;13522;50.018;20.014;2022-12-20T12:52:44;78.13;;;39.13;;
25663;SDS011;13522;50.018;20.014;2022-12-20T12:56:00;77.75;;;40.13;;
25663;SDS011;13522;50.018;20.014;2022-12-20T12:59:46;74.85;;;39.18;;
25663;SDS011;13522;50.018;20.014;2022-12-20T13:02:59;79.35;;;38.03;;
25663;SDS011;13522;50.018;20.014;2022-12-20T13:14:23;71.25;;;39.53;;
25663;SDS011;13522;50.018;20.014;2022-12-20T13:17:59;80.40;;;43.08;;
25663;SDS011;13522;50.018;20.014;2022-12-20T13:24:57;72.45;;;38.40;;
25663;SDS011;13522;50.018;20.014;2022-12-20T13:31:55;70.88;;;36.13;;
25663;SDS011;13522;50.018;20.014;2022-12-20T13:38:50;79.85;;;41.75;;
25663;SDS011;13522;50.018;20.014;2022-12-20T13:42:16;73.25;;;40.25;;
25663;SDS011;13522;50.018;20.014;2022-12-20T13:45:46;74.85;;;39.35;;
25663;SDS011;13522;50.018;20.014;2022-12-20T13:49:01;75.33;;;40.37;;
25663;SDS011;13522;50.018;20.014;2022-12-20T13:52:19;73.67;;;39.83;;
25663;SDS011;13522;50.018;20.014;2022-12-20T13:55:37;79.15;;;42.15;;
25663;SDS011;13522;50.018;20.014;2022-12-20T13:58:49;89.10;;;43.18;;
25663;SDS011;13522;50.018;20.014;2022-12-20T14:02:03;81.80;;;42.93;;
25663;SDS011;13522;50.018;20.014;2022-12-20T14:05:26;78.23;;;39.48;;
25663;SDS011;13522;50.018;20.014;2022-12-20T14:08:45;77.70;;;40.70;;
25663;SDS011;13522;50.018;20.014;2022-12-20T14:12:03;77.13;;;42.28;;
25663;SDS011;13522;50.018;20.014;2022-12-20T14:15:22;83.10;;;42.25;;
25663;SDS011;13522;50.018;20.014;2022-12-20T14:18:37;78.43;;;43.53;;
25663;SDS011;13522;50.018;20.014;2022-12-20T14:21:50;81.60;;;43.43;;
25663;SDS011;13522;50.018;20.014;2022-12-20T14:25:03;79.63;;;41.13;;
25663;SDS011;13522;50.018;20.014;2022-12-20T14:28:26;90.25;;;44.18;;
25663;SDS011;13522;50.018;20.014;2022-12-20T14:31:43;113.60;;;45.40;;
25663;SDS011;13522;50.018;20.014;2022-12-20T14:34:56;89.43;;;44.98;;
25663;SDS011;13522;50.018;20.014;2022-12-20T14:38:19;87.13;;;47.03;;
25663;SDS011;13522;50.018;20.014;2022-12-20T14:41:36;87.08;;;45.33;;
25663;SDS011;13522;50.018;20.014;2022-12-20T14:45:00;78.07;;;42.17;;
25663;SDS011;13522;50.018;20.014;2022-12-20T14:48:16;81.30;;;44.35;;
25663;SDS011;13522;50.018;20.014;2022-12-20T14:51:29;82.30;;;43.90;;
25663;SDS011;13522;50.018;20.014;2022-12-20T14:54:43;95.30;;;46.33;;
25663;SDS011;13522;50.018;20.014;2022-12-20T14:58:05;110.25;;;45.48;;
25663;SDS011;13522;50.018;20.014;2022-12-20T15:01:30;107.88;;;45.50;;
25663;SDS011;13522;50.018;20.014;2022-12-20T15:04:45;118.43;;;45.13;;
25663;SDS011;13522;50.018;20.014;2022-12-20T15:07:57;94.55;;;44.58;;
25663;SDS011;13522;50.018;20.014;2022-12-20T15:11:21;110.83;;;47.30;;
25663;SDS011;13522;50.018;20.014;2022-12-20T15:14:34;95.22;;;46.55;;
25663;SDS011;13522;50.018;20.014;2022-12-20T15:17:47;94.63;;;48.05;;
25663;SDS011;13522;50.018;20.014;2022-12-20T15:21:04;102.55;;;47.93;;
25663;SDS011;13522;50.018;20.014;2022-12-20T15:24:22;90.70;;;45.85;;
25663;SDS011;13522;50.018;20.014;2022-12-20T15:27:36;89.30;;;44.45;;
25663;SDS011;13522;50.018;20.014;2022-12-20T15:30:51;90.60;;;45.63;;
25663;SDS011;13522;50.018;20.014;2022-12-20T15:34:05;87.33;;;45.80;;
25663;SDS011;13522;50.018;20.014;2022-12-20T15:37:23;88.80;;;46.90;;
25663;SDS011;13522;50.018;20.014;2022-12-20T15:40:35;83.00;;;44.93;;
25663;SDS011;13522;50.018;20.014;2022-12-20T15:43:48;86.35;;;43.75;;
25663;SDS011;13522;50.018;20.014;2022-12-20T15:47:04;87.75;;;44.68;;
25663;SDS011;13522;50.018;20.014;2022-12-20T15:50:21;89.40;;;45.15;;
25663;SDS011;13522;50.018;20.014;2022-12-20T15:53:34;96.03;;;45.38;;
25663;SDS011;13522;50.018;20.014;2022-12-20T15:56:46;171.00;;;79.18;;
25663;SDS011;13522;50.018;20.014;2022-12-20T15:59:59;89.15;;;44.25;;
25663;SDS011;13522;50.018;20.014;2022-12-20T16:03:19;88.50;;;41.80;;
25663;SDS011;13522;50.018;20.014;2022-12-20T16:06:34;112.08;;;44.38;;
25663;SDS011;13522;50.018;20.014;2022-12-20T16:09:46;94.60;;;47.43;;
25663;SDS011;13522;50.018;20.014;2022-12-20T16:12:59;107.78;;;46.03;;
25663;SDS011;13522;50.018;20.014;2022-12-20T16:16:12;95.18;;;45.03;;
25663;SDS011;13522;50.018;20.014;2022-12-20T16:19:29;127.13;;;45.68;;
25663;SDS011;13522;50.018;20.014;2022-12-20T16:22:42;102.65;;;43.80;;
25663;SDS011;13522;50.018;20.014;2022-12-20T16:25:54;88.63;;;43.18;;
25663;SDS011;13522;50.018;20.014;2022-12-20T16:29:07;92.58;;;45.30;;
25663;SDS011;13522;50.018;20.014;2022-12-20T16:32:20;83.73;;;43.38;;
25663;SDS011;13522;50.018;20.014;2022-12-20T16:35:33;82.65;;;41.80;;
25663;SDS011;13522;50.018;20.014;2022-12-20T16:38:46;85.53;;;43.43;;
25663;SDS011;13522;50.018;20.014;2022-12-20T16:42:00;85.98;;;42.50;;
25663;SDS011;13522;50.018;20.014;2022-12-20T16:45:15;83.03;;;43.53;;
25663;SDS011;13522;50.018;20.014;2022-12-20T16:48:30;90.60;;;44.48;;
25663;SDS011;13522;50.018;20.014;2022-12-20T16:51:43;83.00;;;43.30;;
25663;SDS011;13522;50.018;20.014;2022-12-20T16:54:56;78.30;;;42.93;;
25663;SDS011;13522;50.018;20.014;2022-12-20T16:58:10;79.15;;;42.18;;
25663;SDS011;13522;50.018;20.014;2022-12-20T17:01:26;74.30;;;42.65;;
25663;SDS011;13522;50.018;20.014;2022-12-20T17:04:42;86.23;;;44.78;;
25663;SDS011;13522;50.018;20.014;2022-12-20T17:07:55;79.98;;;43.13;;
25663;SDS011;13522;50.018;20.014;2022-12-20T17:11:28;81.28;;;44.13;;
25663;SDS011;13522;50.018;20.014;2022-12-20T17:14:41;78.50;;;41.88;;
25663;SDS011;13522;50.018;20.014;2022-12-20T17:17:55;76.90;;;39.28;;
25663;SDS011;13522;50.018;20.014;2022-12-20T17:21:13;112.60;;;62.95;;
25663;SDS011;13522;50.018;20.014;2022-12-20T17:24:35;83.70;;;44.58;;
25663;SDS011;13522;50.018;20.014;2022-12-20T17:27:47;82.80;;;44.33;;
25663;SDS011;13522;50.018;20.014;2022-12-20T17:31:00;78.40;;;41.63;;
25663;SDS011;13522;50.018;20.014;2022-12-20T17:34:21;76.03;;;41.55;;
25663;SDS011;13522;50.018;20.014;2022-12-20T17:37:36;77.13;;;41.93;;
25663;SDS011;13522;50.018;20.014;2022-12-20T17:40:50;79.73;;;40.90;;
25663;SDS011;13522;50.018;20.014;2022-12-20T17:44:03;82.17;;;41.03;;
25663;SDS011;13522;50.018;20.014;2022-12-20T17:47:20;72.98;;;41.43;;
25663;SDS011;13522;50.018;20.014;2022-12-20T17:50:34;81.85;;;42.60;;
25663;SDS011;13522;50.018;20.014;2022-12-20T17:53:49;83.45;;;44.55;;
25663;SDS011;13522;50.018;20.014;2022-12-20T17:57:04;78.58;;;41.18;;
25663;SDS011;13522;50.018;20.014;2022-12-20T18:00:23;76.18;;;40.65;;
25663;SDS011;13522;50.018;20.014;2022-12-20T18:03:40;75.65;;;40.15;;
25663;SDS011;13522;50.018;20.014;2022-12-20T18:06:54;82.33;;;42.00;;
25663;SDS011;13522;50.018;20.014;2022-12-20T18:10:09;77.30;;;40.65;;
25663;SDS011;13522;50.018;20.014;2022-12-20T18:13:21;77.78;;;39.30;;
25663;SDS011;13522;50.018;20.014;2022-12-20T18:16:34;74.20;;;39.68;;
25663;SDS011;13522;50.018;20.014;2022-12-20T18:19:47;71.43;;;38.38;;
25663;SDS011;13522;50.018;20.014;2022-12-20T18:23:00;71.30;;;38.45;;
25663;SDS011;13522;50.018;20.014;2022-12-20T18:26:14;96.00;;;48.70;;
25663;SDS011;13522;50.018;20.014;2022-12-20T18:29:29;80.33;;;43.00;;
25663;SDS011;13522;50.018;20.014;2022-12-20T18:32:42;73.38;;;40.50;;
25663;SDS011;13522;50.018;20.014;2022-12-20T18:36:00;71.90;;;37.93;;
25663;SDS011;13522;50.018;20.014;2022-12-20T18:39:15;69.98;;;39.25;;
25663;SDS011;13522;50.018;20.014;2022-12-20T18:42:28;69.00;;;37.73;;
25663;SDS011;13522;50.018;20.014;2022-12-20T18:45:40;79.13;;;41.58;;
25663;SDS011;13522;50.018;20.014;2022-12-20T18:48:54;78.45;;;42.03;;
25663;SDS011;13522;50.018;20.014;2022-12-20T18:52:07;78.18;;;40.65;;
25663;SDS011;13522;50.018;20.014;2022-12-20T18:55:20;73.55;;;39.90;;
25663;SDS011;13522;50.018;20.014;2022-12-20T18:58:32;74.75;;;40.33;;
25663;SDS011;13522;50.018;20.014;2022-12-20T19:01:47;76.35;;;42.70;;
25663;SDS011;13522;50.018;20.014;2022-12-20T19:05:00;75.05;;;41.40;;
25663;SDS011;13522;50.018;20.014;2022-12-20T19:08:14;80.45;;;43.38;;
25663;SDS011;13522;50.018;20.014;2022-12-20T19:11:27;80.90;;;42.60;;
25663;SDS011;13522;50.018;20.014;2022-12-20T19:14:40;72.45;;;38.63;;